Time;durP1;ratioP1;P1;durP2;ratioP2;P2;SDS_P1;SDS_P2;PMS_P1;PMS_P2;Temp;Humidity;BMP_temperature;BMP_pressure;BME280_temperature;BME280_humidity;BME280_pressure;Samples;Min_cycle;Max_cycle;Signal;HPM_P1;HPM_P2
2021/08/15 00:00:00;;;;;;;6.40;2.60;;;;;;;15.53;85.42;100709.53;5053602;28;20143;-84
2021/08/15 00:02:29;;;;;;;7.10;3.17;;;;;;;15.52;85.40;100693.97;5056040;28;20496;-84
2021/08/15 00:04:56;;;;;;;4.47;2.30;;;;;;;15.52;85.35;100701.53;5074255;28;20480;-84
2021/08/15 00:07:23;;;;;;;3.25;2.65;;;;;;;15.54;85.30;100696.38;5073213;28;20049;-85
2021/08/15 00:09:50;;;;;;;4.47;3.00;;;;;;;15.54;85.40;100699.19;5056436;28;20041;-84
2021/08/15 00:12:17;;;;;;;7.80;3.72;;;;;;;15.55;85.45;100695.19;5056102;28;20056;-84
2021/08/15 00:14:44;;;;;;;4.00;2.70;;;;;;;15.56;85.37;100702.38;5074332;28;20044;-84
2021/08/15 00:17:11;;;;;;;5.40;2.35;;;;;;;15.55;85.24;100692.41;5074171;28;20036;-85
2021/08/15 00:19:38;;;;;;;4.75;2.92;;;;;;;15.56;85.61;100694.00;5074466;28;20048;-85
2021/08/15 00:22:05;;;;;;;5.13;3.33;;;;;;;15.56;85.67;100694.00;5073884;28;20076;-84
2021/08/15 00:24:34;;;;;;;4.97;4.03;;;;;;;15.56;85.81;100692.03;5074107;28;20119;-84
2021/08/15 00:27:02;;;;;;;5.45;3.55;;;;;;;15.56;85.72;100683.66;5056486;28;20358;-84
2021/08/15 00:29:29;;;;;;;3.67;2.53;;;;;;;15.57;85.79;100695.59;5072453;28;20068;-85
2021/08/15 00:31:56;;;;;;;3.75;2.03;;;;;;;15.57;85.66;100690.03;5073233;28;20475;-84
2021/08/15 00:34:23;;;;;;;4.85;2.72;;;;;;;15.57;85.83;100692.81;5056385;28;20044;-87
2021/08/15 00:36:49;;;;;;;3.95;2.35;;;;;;;15.59;85.76;100688.50;5074222;28;20037;-84
2021/08/15 00:39:16;;;;;;;3.97;2.08;;;;;;;15.62;85.53;100686.91;5073760;28;20480;-83
2021/08/15 00:41:44;;;;;;;5.03;2.35;;;;;;;15.63;85.69;100680.13;5073620;28;20157;-85
2021/08/15 00:44:12;;;;;;;3.33;2.10;;;;;;;15.61;85.81;100680.53;5055939;28;20051;-84
2021/08/15 00:46:39;;;;;;;4.15;2.08;;;;;;;15.60;85.93;100680.91;5072951;28;20091;-88
2021/08/15 00:49:06;;;;;;;5.22;2.95;;;;;;;15.62;85.90;100676.53;5072324;28;20049;-85
2021/08/15 00:51:33;;;;;;;2.92;1.88;;;;;;;15.64;85.69;100668.59;5054001;28;20112;-85
2021/08/15 00:54:01;;;;;;;3.63;2.28;;;;;;;15.65;85.80;100672.19;5072519;28;20055;-84
2021/08/15 00:56:28;;;;;;;5.03;2.65;;;;;;;15.65;85.48;100666.59;5039519;28;20407;-84
2021/08/15 00:58:55;;;;;;;4.30;2.45;;;;;;;15.61;85.41;100674.94;5055179;28;20040;-84
2021/08/15 01:01:21;;;;;;;3.67;2.80;;;;;;;15.58;85.48;100663.75;5055198;28;20037;-85
2021/08/15 01:03:49;;;;;;;4.25;2.45;;;;;;;15.54;85.28;100652.53;5027024;28;20053;-84
2021/08/15 01:06:15;;;;;;;3.00;2.25;;;;;;;15.49;84.91;100658.44;5039327;28;20500;-84
2021/08/15 01:08:42;;;;;;;4.72;2.90;;;;;;;15.43;85.00;100661.94;5073308;28;20431;-84
2021/08/15 01:11:10;;;;;;;3.88;2.55;;;;;;;15.37;84.96;100660.66;5073481;28;20045;-84
2021/08/15 01:13:38;;;;;;;4.55;2.60;;;;;;;15.33;85.02;100662.63;5073467;28;20166;-85
2021/08/15 01:16:06;;;;;;;5.10;3.03;;;;;;;15.26;85.29;100663.31;5073108;28;20051;-84
2021/08/15 01:18:34;;;;;;;5.43;3.20;;;;;;;15.24;85.19;100658.13;5073117;28;20037;-84
2021/08/15 01:21:06;;;;;;;3.50;2.38;;;;;;;15.21;85.31;100661.66;5073085;28;20040;-84
2021/08/15 01:23:34;;;;;;;;;;;;;;;15.16;85.63;100659.22;5073268;28;20589;-83
2021/08/15 01:26:05;;;;;;;5.90;3.13;;;;;;;15.20;85.37;100668.41;5055876;28;20003;-83
2021/08/15 01:28:32;;;;;;;5.18;3.30;;;;;;;15.21;85.45;100655.28;5071413;28;20051;-85
2021/08/15 01:30:59;;;;;;;5.55;3.22;;;;;;;15.22;85.84;100651.31;5057037;28;20044;-84
2021/08/15 01:33:28;;;;;;;4.15;3.10;;;;;;;15.23;85.54;100642.56;5055362;28;20049;-84
2021/08/15 01:35:56;;;;;;;6.03;3.63;;;;;;;15.27;85.34;100644.59;5073106;28;20040;-84
2021/08/15 01:38:26;;;;;;;3.83;3.25;;;;;;;15.30;85.32;100641.06;5038413;28;20044;-84
2021/08/15 01:40:53;;;;;;;5.25;3.78;;;;;;;15.32;85.45;100639.50;5054696;28;20507;-86
2021/08/15 01:43:21;;;;;;;6.55;3.58;;;;;;;15.33;85.21;100635.50;5073229;28;20426;-84
2021/08/15 01:45:47;;;;;;;5.72;3.60;;;;;;;15.35;85.37;100629.56;5072668;28;20041;-84
2021/08/15 01:48:15;;;;;;;3.88;2.78;;;;;;;15.35;85.12;100633.16;5054872;28;20102;-84
2021/08/15 01:50:41;;;;;;;5.65;2.90;;;;;;;15.36;85.28;100629.16;5053698;28;20579;-84
2021/08/15 01:53:10;;;;;;;4.25;2.83;;;;;;;15.37;85.26;100630.78;5071784;28;20045;-85
2021/08/15 01:55:41;;;;;;;5.60;2.33;;;;;;;15.39;85.18;100624.81;5070343;28;20044;-84
2021/08/15 01:58:10;;;;;;;5.28;2.45;;;;;;;15.39;84.94;100620.03;5069223;28;20097;-85
2021/08/15 02:00:39;;;;;;;3.38;2.33;;;;;;;15.40;84.96;100623.63;5058930;28;20127;-84
2021/08/15 02:03:07;;;;;;;13.02;4.68;;;;;;;15.41;84.92;100625.25;5072098;28;20072;-84
2021/08/15 02:05:34;;;;;;;3.47;1.38;;;;;;;15.40;84.88;100623.63;5072688;28;20043;-84
2021/08/15 02:08:03;;;;;;;4.00;2.05;;;;;;;15.37;84.94;100614.03;5038601;28;20139;-84
2021/08/15 02:10:31;;;;;;;1.92;1.23;;;;;;;15.37;84.89;100616.03;5054369;28;20135;-84
2021/08/15 02:13:00;;;;;;;4.78;1.17;;;;;;;15.35;84.78;100619.19;5019880;28;20404;-85
2021/08/15 02:15:26;;;;;;;1.80;1.38;;;;;;;15.35;84.50;100616.41;5064209;28;20051;-85
2021/08/15 02:17:53;;;;;;;3.58;1.30;;;;;;;15.35;84.78;100615.59;5071776;28;20056;-84
2021/08/15 02:20:22;;;;;;;5.15;1.40;;;;;;;15.32;84.44;100611.59;5072500;28;20550;-84
2021/08/15 02:22:48;;;;;;;5.00;1.30;;;;;;;15.31;84.57;100606.38;5071091;28;20044;-84
2021/08/15 02:25:17;;;;;;;4.75;1.98;;;;;;;15.30;84.60;100607.59;5072198;28;20128;-84
2021/08/15 02:27:44;;;;;;;4.30;1.27;;;;;;;15.27;84.63;100604.34;5070236;28;20400;-84
2021/08/15 02:30:14;;;;;;;3.95;1.35;;;;;;;15.27;84.64;100595.19;5064562;28;20068;-85
2021/08/15 02:32:42;;;;;;;8.90;1.33;;;;;;;15.29;84.54;100594.81;5070773;28;20045;-84
2021/08/15 02:35:10;;;;;;;10.52;1.85;;;;;;;15.28;84.53;100599.56;5059812;28;20119;-84
2021/08/15 02:37:39;;;;;;;5.47;1.88;;;;;;;15.30;84.52;100593.63;5071384;28;20037;-83
2021/08/15 02:40:08;;;;;;;3.10;1.30;;;;;;;15.31;84.39;100593.25;5071107;28;20062;-84
2021/08/15 02:42:37;;;;;;;2.72;2.08;;;;;;;15.31;84.48;100587.66;5072167;28;20059;-84
2021/08/15 02:45:05;;;;;;;3.58;2.00;;;;;;;15.31;84.42;100587.66;5072191;28;20041;-86
2021/08/15 02:47:32;;;;;;;4.95;1.67;;;;;;;15.33;84.43;100584.50;5072390;28;20131;-84
2021/08/15 02:49:59;;;;;;;4.22;1.30;;;;;;;15.31;84.59;100579.28;5057943;28;20040;-83
2021/08/15 02:52:26;;;;;;;6.45;1.85;;;;;;;15.33;84.54;100584.50;5054150;28;20053;-83
2021/08/15 02:54:53;;;;;;;5.68;1.90;;;;;;;15.34;84.36;100575.75;5072067;28;20476;-83
2021/08/15 02:57:20;;;;;;;4.88;1.33;;;;;;;15.35;84.24;100573.75;5071837;28;20047;-83
2021/08/15 02:59:46;;;;;;;7.97;1.70;;;;;;;15.36;84.30;100566.97;5054270;28;20041;-84
2021/08/15 03:02:16;;;;;;;9.38;2.13;;;;;;;15.35;84.33;100565.41;5071143;28;20037;-83
2021/08/15 03:04:45;;;;;;;2.85;1.70;;;;;;;15.36;84.12;100564.19;5053242;28;20415;-84
2021/08/15 03:07:17;;;;;;;3.92;1.58;;;;;;;15.34;84.28;100558.19;5075137;28;20055;-83
2021/08/15 03:09:44;;;;;;;8.68;2.35;;;;;;;15.33;84.29;100570.56;5075618;28;20132;-84
2021/08/15 03:12:12;;;;;;;5.70;2.03;;;;;;;15.31;84.55;100570.13;5057889;28;20037;-84
2021/08/15 03:14:39;;;;;;;5.13;2.20;;;;;;;15.31;84.61;100570.13;5057758;28;20048;-84
2021/08/15 03:17:06;;;;;;;3.95;1.70;;;;;;;15.33;84.53;100564.97;5075533;28;20480;-84
2021/08/15 03:19:34;;;;;;;4.05;1.90;;;;;;;15.32;84.42;100555.00;5057672;28;20045;-83
2021/08/15 03:22:01;;;;;;;5.60;2.20;;;;;;;15.33;84.46;100562.19;5074720;28;20559;-84
2021/08/15 03:24:27;;;;;;;5.40;2.20;;;;;;;15.33;84.54;100559.41;5074040;28;20078;-83
2021/08/15 03:26:54;;;;;;;3.70;1.85;;;;;;;15.34;84.43;100558.19;5075458;28;20472;-83
2021/08/15 03:29:21;;;;;;;7.55;2.30;;;;;;;15.32;84.52;100553.00;5057295;28;20037;-85
2021/08/15 03:31:48;;;;;;;6.70;1.83;;;;;;;15.32;84.37;100563.38;5040283;28;20546;-83
2021/08/15 03:34:19;;;;;;;5.43;2.38;;;;;;;15.31;84.56;100553.38;5056885;28;20050;-83
2021/08/15 03:36:47;;;;;;;4.95;1.77;;;;;;;15.30;84.58;100558.19;5075237;28;20123;-84
2021/08/15 03:39:14;;;;;;;4.70;1.73;;;;;;;15.31;84.33;100556.16;5074548;28;20036;-84
2021/08/15 03:41:41;;;;;;;6.90;1.83;;;;;;;15.30;84.63;100546.22;5063711;28;20048;-84
2021/08/15 03:44:08;;;;;;;5.82;2.10;;;;;;;15.31;84.57;100542.22;5074970;28;20442;-84
2021/08/15 03:46:36;;;;;;;4.10;1.63;;;;;;;15.30;84.68;100546.22;5074945;28;20123;-84
2021/08/15 03:49:03;;;;;;;5.80;2.03;;;;;;;15.29;84.69;100547.38;5074973;28;20545;-83
2021/08/15 03:51:30;;;;;;;4.03;1.83;;;;;;;15.27;84.64;100552.56;5074530;28;20049;-83
2021/08/15 03:53:57;;;;;;;3.55;1.42;;;;;;;15.25;84.59;100538.97;5074642;28;20036;-83
2021/08/15 03:56:24;;;;;;;7.28;2.05;;;;;;;15.25;84.62;100544.53;5074336;28;20128;-83
2021/08/15 03:58:50;;;;;;;4.70;1.42;;;;;;;15.26;84.44;100540.59;5074900;28;20048;-83
2021/08/15 04:01:18;;;;;;;4.97;1.65;;;;;;;15.25;84.65;100539.78;5074124;28;20139;-83
2021/08/15 04:03:44;;;;;;;5.45;1.48;;;;;;;15.23;84.56;100533.78;5039803;28;20041;-84
2021/08/15 04:06:20;;;;;;;5.88;2.50;;;;;;;15.24;84.57;100537.38;5074429;28;20047;-84
2021/08/15 04:08:49;;;;;;;4.70;1.77;;;;;;;15.23;84.58;100542.16;5074753;28;20045;-85
2021/08/15 04:11:17;;;;;;;5.95;1.40;;;;;;;15.23;84.50;100539.38;5074397;28;20076;-82
2021/08/15 04:13:44;;;;;;;3.25;1.65;;;;;;;15.24;84.50;100532.63;5073985;28;20470;-83
2021/08/15 04:16:11;;;;;;;4.95;1.88;;;;;;;15.23;84.48;100535.78;5074376;28;20502;-84
2021/08/15 04:18:38;;;;;;;3.30;1.98;;;;;;;15.22;84.46;100536.97;5073519;28;20049;-84
2021/08/15 04:21:04;;;;;;;7.00;1.75;;;;;;;15.23;84.61;100532.97;5074581;28;20131;-83
2021/08/15 04:23:32;;;;;;;4.47;2.20;;;;;;;15.22;84.38;100523.81;5074043;28;20381;-83
2021/08/15 04:25:59;;;;;;;4.75;2.08;;;;;;;15.21;84.52;100519.44;5073144;28;20047;-83
2021/08/15 04:28:26;;;;;;;5.97;1.80;;;;;;;15.19;84.53;100521.00;5060863;28;20044;-83
2021/08/15 04:30:53;;;;;;;5.13;2.28;;;;;;;15.21;84.51;100516.63;5041810;28;20484;-85
2021/08/15 04:33:23;;;;;;;5.82;1.85;;;;;;;15.20;84.39;100523.38;5072812;28;20472;-83
2021/08/15 04:35:53;;;;;;;3.78;1.60;;;;;;;15.20;84.29;100515.03;5067697;28;20037;-83
2021/08/15 04:38:21;;;;;;;5.22;2.10;;;;;;;15.19;84.37;100521.81;5036987;28;20068;-84
2021/08/15 04:40:50;;;;;;;6.68;2.25;;;;;;;15.18;84.19;100525.75;5073755;28;20047;-84
2021/08/15 04:43:20;;;;;;;9.18;3.15;;;;;;;15.18;84.01;100517.41;5056138;28;20127;-83
2021/08/15 04:45:48;;;;;;;3.25;1.90;;;;;;;15.17;84.53;100521.34;5056286;28;20083;-83
2021/08/15 04:48:16;;;;;;;5.85;2.00;;;;;;;15.13;84.47;100516.94;5056337;28;20048;-84
2021/08/15 04:50:44;;;;;;;7.68;2.05;;;;;;;15.11;84.39;100517.34;5067665;28;20044;-85
2021/08/15 04:53:11;;;;;;;6.75;1.75;;;;;;;15.12;84.38;100521.72;5072200;28;20055;-84
2021/08/15 04:55:39;;;;;;;9.52;2.80;;;;;;;15.11;84.21;100514.53;5072070;28;20044;-83
2021/08/15 04:58:05;;;;;;;2.45;1.67;;;;;;;15.09;84.27;100508.53;5063875;28;20040;-83
2021/08/15 05:00:33;;;;;;;5.35;1.88;;;;;;;15.08;84.20;100506.94;5055664;28;20052;-84
2021/08/15 05:03:01;;;;;;;5.78;1.63;;;;;;;15.09;84.34;100519.66;5054453;28;20040;-85
2021/08/15 05:05:28;;;;;;;4.38;1.92;;;;;;;15.11;84.11;100511.75;5061679;28;20064;-85
2021/08/15 05:07:55;;;;;;;9.05;1.83;;;;;;;15.13;84.02;100514.16;5071947;28;20049;-84
2021/08/15 05:10:22;;;;;;;5.20;2.00;;;;;;;15.09;83.81;100513.31;5071986;28;20049;-83
2021/08/15 05:12:49;;;;;;;5.40;2.35;;;;;;;15.09;83.76;100507.75;5071803;28;20176;-85
2021/08/15 05:15:16;;;;;;;7.20;2.17;;;;;;;15.08;83.68;100506.13;5055015;28;20143;-85
2021/08/15 05:17:43;;;;;;;6.18;2.15;;;;;;;15.09;83.58;100507.75;5073334;28;20043;-84
2021/08/15 05:20:11;;;;;;;7.60;3.30;;;;;;;15.09;83.38;100505.72;5073146;28;20132;-84
2021/08/15 05:22:38;;;;;;;7.18;2.10;;;;;;;15.10;83.35;100510.13;5064199;28;20147;-85
2021/08/15 05:25:06;;;;;;;10.40;2.28;;;;;;;15.11;83.08;100511.75;5073072;28;20043;-86
2021/08/15 05:27:33;;;;;;;3.05;2.03;;;;;;;15.12;83.20;100516.13;5032899;28;20045;-83
2021/08/15 05:30:00;;;;;;;6.45;2.17;;;;;;;15.15;83.11;100517.34;5052777;28;20045;-83
2021/08/15 05:32:28;;;;;;;12.13;3.00;;;;;;;15.15;83.28;100520.94;5067588;28;20487;-82
2021/08/15 05:34:55;;;;;;;5.50;1.70;;;;;;;15.16;83.08;100516.97;5072968;28;20044;-85
2021/08/15 05:37:22;;;;;;;6.32;2.30;;;;;;;15.15;83.13;100522.94;5071745;28;20119;-83
2021/08/15 05:39:49;;;;;;;6.80;2.00;;;;;;;15.13;83.46;100526.13;5064639;28;20052;-83
2021/08/15 05:42:16;;;;;;;8.10;2.50;;;;;;;15.17;83.37;100521.34;5072346;28;20072;-84
2021/08/15 05:44:43;;;;;;;6.00;2.10;;;;;;;15.17;83.40;100521.34;5055069;28;20123;-86
2021/08/15 05:47:10;;;;;;;8.65;2.88;;;;;;;15.17;83.48;100521.34;5072613;28;20036;-83
2021/08/15 05:49:37;;;;;;;6.18;2.10;;;;;;;15.18;83.21;100528.56;5072640;28;20037;-84
2021/08/15 05:52:04;;;;;;;7.03;2.33;;;;;;;15.20;83.17;100525.38;5071507;28;20040;-84
2021/08/15 05:54:31;;;;;;;8.43;2.42;;;;;;;15.23;83.09;100525.41;5072758;28;20127;-83
2021/08/15 05:56:58;;;;;;;7.43;2.70;;;;;;;15.27;83.00;100527.44;5045270;28;20049;-84
2021/08/15 05:59:26;;;;;;;11.35;3.15;;;;;;;15.30;83.05;100523.91;5072377;28;20052;-83
2021/08/15 06:01:55;;;;;;;3.97;1.98;;;;;;;15.31;83.13;100520.72;5064887;28;20056;-85
2021/08/15 06:04:22;;;;;;;10.60;3.10;;;;;;;15.35;83.32;100538.31;5072029;28;20040;-82
2021/08/15 06:06:49;;;;;;;6.93;1.85;;;;;;;15.37;83.36;100526.75;5072259;28;20037;-84
2021/08/15 06:09:16;;;;;;;14.55;2.65;;;;;;;15.39;83.30;100519.59;5071073;28;20036;-83
2021/08/15 06:11:43;;;;;;;7.70;2.63;;;;;;;15.44;83.28;100526.81;5072550;28;20067;-83
2021/08/15 06:14:10;;;;;;;18.15;4.03;;;;;;;15.46;82.89;100519.69;5071826;28;20062;-84
2021/08/15 06:16:36;;;;;;;5.13;1.67;;;;;;;15.48;83.15;100510.97;5072240;28;20045;-84
2021/08/15 06:19:03;;;;;;;11.73;3.22;;;;;;;15.52;83.12;100514.56;5072310;28;20041;-84
2021/08/15 06:21:31;;;;;;;8.95;2.30;;;;;;;15.53;83.00;100510.59;5071257;28;20398;-84
2021/08/15 06:23:58;;;;;;;9.38;2.13;;;;;;;15.52;82.88;100517.38;5071111;28;20048;-84
2021/08/15 06:26:25;;;;;;;9.15;3.38;;;;;;;15.54;82.68;100517.81;5071102;28;20173;-85
2021/08/15 06:28:51;;;;;;;6.47;2.40;;;;;;;15.56;82.64;100516.22;5071423;28;20040;-84
2021/08/15 06:31:22;;;;;;;9.13;1.77;;;;;;;15.58;82.62;100518.63;5071947;28;20429;-85
2021/08/15 06:33:50;;;;;;;9.48;2.22;;;;;;;15.62;82.31;100523.03;5071680;28;20040;-85
2021/08/15 06:36:17;;;;;;;11.32;2.70;;;;;;;15.67;82.24;100528.28;5069494;28;20125;-85
2021/08/15 06:38:44;;;;;;;14.07;2.53;;;;;;;15.70;82.27;100529.53;5071035;28;20183;-85
2021/08/15 06:41:11;;;;;;;14.52;4.00;;;;;;;15.76;82.24;100525.97;5072768;28;20507;-85
2021/08/15 06:43:38;;;;;;;19.42;3.83;;;;;;;15.82;82.13;100529.22;5075584;28;20116;-85
2021/08/15 06:46:05;;;;;;;13.45;2.47;;;;;;;15.87;82.20;100523.28;5075692;28;20042;-84
2021/08/15 06:48:32;;;;;;;11.07;2.58;;;;;;;15.93;82.16;100540.47;5058280;28;20048;-85
2021/08/15 06:50:59;;;;;;;12.65;3.45;;;;;;;15.99;81.81;100542.50;5075928;28;20488;-85
2021/08/15 06:53:28;;;;;;;12.10;2.60;;;;;;;16.02;81.50;100538.94;5075720;28;20075;-84
2021/08/15 06:55:58;;;;;;;11.45;2.08;;;;;;;16.02;81.30;100538.16;5066188;28;20411;-85
2021/08/15 06:58:28;;;;;;;7.30;2.30;;;;;;;16.02;81.15;100538.94;5062497;28;20512;-84
2021/08/15 07:00:55;;;;;;;9.85;3.10;;;;;;;16.04;81.21;100531.00;5073533;28;20043;-85
2021/08/15 07:03:22;;;;;;;3.58;2.17;;;;;;;16.07;81.34;100527.41;5029177;28;20079;-85
2021/08/15 07:05:49;;;;;;;7.85;2.47;;;;;;;16.10;81.45;100532.22;5075173;28;20487;-87
2021/08/15 07:08:17;;;;;;;11.00;2.80;;;;;;;16.17;81.53;100537.88;5075416;28;20464;-85
2021/08/15 07:10:44;;;;;;;11.70;2.85;;;;;;;16.28;81.46;100535.16;5075639;28;20131;-87
2021/08/15 07:13:13;;;;;;;8.50;1.90;;;;;;;16.34;81.09;100540.00;5069425;28;20049;-91
2021/08/15 07:15:41;;;;;;;7.72;2.22;;;;;;;16.44;80.91;100549.66;5072622;28;20040;-85
2021/08/15 07:18:08;;;;;;;11.45;2.95;;;;;;;16.53;80.78;100549.31;5074397;28;20067;-84
2021/08/15 07:20:35;;;;;;;6.85;2.00;;;;;;;16.61;80.74;100545.38;5073724;28;20062;-84
2021/08/15 07:23:02;;;;;;;11.55;2.35;;;;;;;16.72;80.85;100544.25;5074725;28;20051;-84
2021/08/15 07:25:29;;;;;;;7.43;2.03;;;;;;;16.84;80.70;100552.28;5074548;28;20461;-84
2021/08/15 07:27:58;;;;;;;9.32;1.80;;;;;;;16.97;80.59;100561.16;5073542;28;20032;-83
2021/08/15 07:30:25;;;;;;;12.15;2.63;;;;;;;17.02;79.90;100569.16;5033760;28;20049;-84
2021/08/15 07:33:00;;;;;;;9.38;2.15;;;;;;;17.05;79.96;100574.75;5054561;28;20127;-83
2021/08/15 07:35:28;;;;;;;11.18;2.20;;;;;;;17.07;79.34;100565.19;5073797;28;20127;-84
2021/08/15 07:37:55;;;;;;;11.05;2.15;;;;;;;17.07;79.25;100574.38;5054993;28;20115;-84
2021/08/15 07:40:22;;;;;;;9.63;1.95;;;;;;;17.06;78.48;100569.97;5072461;28;20127;-84
2021/08/15 07:42:53;;;;;;;7.10;1.98;;;;;;;17.05;78.36;100571.97;5055765;28;20056;-85
2021/08/15 07:45:24;;;;;;;7.00;1.88;;;;;;;17.07;78.18;100559.59;5073081;28;20036;-83
2021/08/15 07:47:51;;;;;;;11.35;2.38;;;;;;;17.07;78.06;100554.81;5073793;28;20040;-83
2021/08/15 07:50:23;;;;;;;12.07;2.40;;;;;;;17.11;77.91;100554.78;5074012;28;20048;-84
2021/08/15 07:52:51;;;;;;;10.38;1.88;;;;;;;17.17;77.98;100554.03;5069477;28;20047;-84
2021/08/15 07:55:19;;;;;;;12.00;2.50;;;;;;;17.29;77.55;100538.88;5073866;28;20037;-84
2021/08/15 07:57:46;;;;;;;8.60;2.13;;;;;;;17.42;77.65;100532.50;5073594;28;20178;-83
2021/08/15 08:00:13;;;;;;;9.82;1.90;;;;;;;17.54;78.05;100526.56;5059017;28;20045;-87
2021/08/15 08:02:40;;;;;;;13.13;2.22;;;;;;;17.70;77.81;100529.00;5031219;28;20045;-83
2021/08/15 08:05:08;;;;;;;8.70;1.70;;;;;;;17.86;77.51;100531.41;5067086;28;20099;-86
2021/08/15 08:07:34;;;;;;;5.85;2.03;;;;;;;17.95;77.02;100531.81;5073276;28;20143;-84
2021/08/15 08:10:03;;;;;;;6.72;1.48;;;;;;;18.06;76.61;100529.78;5073086;28;20060;-83
2021/08/15 08:12:32;;;;;;;7.50;1.92;;;;;;;18.16;76.31;100521.38;5075508;28;20052;-85
2021/08/15 08:14:59;;;;;;;6.85;1.80;;;;;;;18.26;76.30;100519.78;5083851;28;20067;-85
2021/08/15 08:17:26;;;;;;;6.93;2.72;;;;;;;18.37;76.46;100517.75;5055273;28;20048;-87
2021/08/15 08:19:52;;;;;;;5.20;1.20;;;;;;;18.48;76.31;100520.59;5073219;28;20052;-85
2021/08/15 08:22:19;;;;;;;5.10;1.90;;;;;;;18.74;77.31;100528.50;5054226;28;20415;-86
2021/08/15 08:24:47;;;;;;;5.28;1.50;;;;;;;18.97;76.27;100530.81;5072795;28;20056;-83
2021/08/15 08:27:14;;;;;;;4.50;1.73;;;;;;;19.06;74.17;100539.63;5054979;28;20044;-83
2021/08/15 08:29:41;;;;;;;2.20;0.80;;;;;;;18.95;73.00;100538.84;5063736;28;20136;-84
2021/08/15 08:32:08;;;;;;;5.38;1.85;;;;;;;18.90;72.29;100542.09;5047517;28;20102;-88
2021/08/15 08:34:36;;;;;;;6.63;1.58;;;;;;;18.87;71.29;100545.69;5071505;28;20048;-85
2021/08/15 08:37:03;;;;;;;7.15;2.05;;;;;;;18.84;70.96;100536.88;5073112;28;20119;-85
2021/08/15 08:39:30;;;;;;;6.28;1.90;;;;;;;18.85;70.58;100540.47;5039097;28;20063;-91
2021/08/15 08:42:03;;;;;;;2.65;0.70;;;;;;;18.78;69.98;100540.50;5056064;28;20043;-92
2021/08/15 08:44:31;;;;;;;3.55;1.33;;;;;;;18.74;70.29;100540.50;5073096;28;20071;-87
2021/08/15 08:47:03;;;;;;;6.47;1.40;;;;;;;18.75;69.80;100539.31;5078208;28;20051;-86
2021/08/15 08:49:31;;;;;;;5.78;1.17;;;;;;;18.93;70.29;100536.44;5056293;28;20045;-86
2021/08/15 08:51:59;;;;;;;5.30;1.10;;;;;;;19.18;70.40;100542.75;5072525;28;20063;-91
2021/08/15 08:54:27;;;;;;;4.80;1.10;;;;;;;19.21;69.80;100541.13;5050683;28;20097;-93
2021/08/15 08:56:55;;;;;;;3.92;1.38;;;;;;;19.19;69.37;100533.13;5056453;28;20044;-90
2021/08/15 08:59:22;;;;;;;6.50;1.25;;;;;;;19.26;69.32;100533.09;5070368;28;20044;-92
2021/08/15 09:01:50;;;;;;;6.68;1.38;;;;;;;19.44;69.04;100538.63;5053877;28;20082;-92
2021/08/15 09:04:17;;;;;;;4.82;1.13;;;;;;;19.55;68.73;100541.38;5073153;28;20044;-89
2021/08/15 09:06:44;;;;;;;4.55;1.15;;;;;;;19.49;68.37;100535.38;5055319;28;20130;-89
2021/08/15 09:09:18;;;;;;;4.57;1.63;;;;;;;19.54;67.94;100549.00;5037858;28;20076;-88
2021/08/15 09:11:47;;;;;;;4.88;1.75;;;;;;;19.53;68.29;100541.78;5073497;28;20047;-88
2021/08/15 09:14:15;;;;;;;7.28;1.50;;;;;;;19.55;68.26;100541.38;5073026;28;20065;-88
2021/08/15 09:16:48;;;;;;;5.70;1.20;;;;;;;19.59;67.94;100528.91;5064635;28;20604;-89
2021/08/15 09:19:41;;;;;;;6.20;1.55;;;;;;;19.62;67.73;100530.88;5054464;28;20056;-89
2021/08/15 09:22:21;;;;;;;8.52;2.22;;;;;;;19.55;67.86;100536.56;5072082;28;20104;-89
2021/08/15 09:24:47;;;;;;;3.08;0.98;;;;;;;19.36;67.90;100546.25;5054148;28;20076;-89
2021/08/15 09:27:23;;;;;;;5.03;1.15;;;;;;;19.20;68.28;100539.53;5054611;28;20143;-89
2021/08/15 09:30:10;;;;;;;4.30;1.63;;;;;;;19.08;68.26;100549.22;5072746;28;20037;-88
2021/08/15 09:32:47;;;;;;;11.30;3.08;;;;;;;18.96;69.13;100551.66;5055757;28;20131;-89
2021/08/15 09:35:22;;;;;;;11.00;3.88;;;;;;;18.85;69.38;100546.88;5072128;28;20087;-89
2021/08/15 09:38:17;;;;;;;11.15;2.58;;;;;;;18.73;69.95;100543.72;5063480;28;20128;-91
2021/08/15 09:40:55;;;;;;;9.38;2.85;;;;;;;18.66;70.34;100550.19;5044845;28;20112;-85
2021/08/15 09:43:25;;;;;;;8.30;2.28;;;;;;;18.62;70.61;100546.56;5066838;28;20042;-85
2021/08/15 09:45:54;;;;;;;7.68;3.08;;;;;;;18.60;71.10;100540.56;5068528;28;20044;-86
2021/08/15 09:48:36;;;;;;;6.13;1.77;;;;;;;18.66;71.39;100543.75;5065743;28;20535;-87
2021/08/15 09:51:09;;;;;;;7.60;2.03;;;;;;;18.69;71.73;100543.72;5065513;28;20076;-86
2021/08/15 09:53:39;;;;;;;6.45;2.67;;;;;;;18.79;71.78;100547.72;5053744;28;20143;-87
2021/08/15 09:56:07;;;;;;;6.13;2.47;;;;;;;18.95;71.52;100550.06;5050609;28;20141;-89
2021/08/15 09:58:34;;;;;;;10.23;1.88;;;;;;;19.12;71.62;100554.78;5049505;28;20052;-88
2021/08/15 10:01:06;;;;;;;9.07;2.15;;;;;;;19.17;71.15;100546.75;5062001;28;20044;-87
2021/08/15 10:03:40;;;;;;;12.13;2.75;;;;;;;19.12;70.95;100552.00;5049488;28;20049;-85
2021/08/15 10:06:06;;;;;;;8.27;2.80;;;;;;;19.04;70.84;100551.22;5063984;28;20040;-88
2021/08/15 10:08:34;;;;;;;10.23;2.00;;;;;;;18.98;70.66;100552.06;5063376;28;20033;-88
2021/08/15 10:11:01;;;;;;;10.05;1.95;;;;;;;18.92;70.70;100543.28;5055048;28;20051;-88
2021/08/15 10:13:31;;;;;;;14.40;2.28;;;;;;;18.87;70.87;100554.91;5050350;28;20460;-88
2021/08/15 10:16:03;;;;;;;58.42;4.55;;;;;;;18.81;71.12;100542.50;5067184;28;20044;-88
2021/08/15 10:18:34;;;;;;;5.05;2.35;;;;;;;18.81;71.41;100554.53;5067192;28;20045;-88
2021/08/15 10:21:07;;;;;;;10.33;1.90;;;;;;;18.80;71.23;100552.91;5048232;28;20496;-88
2021/08/15 10:23:36;;;;;;;4.72;2.22;;;;;;;18.81;71.65;100554.53;5056797;28;20131;-88
2021/08/15 10:26:24;;;;;;;7.57;2.00;;;;;;;18.83;71.71;100557.72;5037899;28;20071;-87
2021/08/15 10:28:52;;;;;;;7.57;1.83;;;;;;;18.90;71.55;100556.91;5052303;28;20457;-87
2021/08/15 10:31:19;;;;;;;10.60;2.78;;;;;;;18.95;71.79;100564.09;5055506;28;20492;-87
2021/08/15 10:33:54;;;;;;;9.02;2.15;;;;;;;19.03;71.64;100562.88;5069303;28;20480;-88
2021/08/15 10:36:26;;;;;;;4.68;2.20;;;;;;;19.06;71.57;100551.63;5067434;28;20199;-87
2021/08/15 10:38:55;;;;;;;9.90;2.85;;;;;;;19.16;71.37;100553.59;5070698;28;20075;-88
2021/08/15 10:41:44;;;;;;;6.57;2.15;;;;;;;19.18;71.28;100564.41;5049832;28;20068;-88
2021/08/15 10:44:13;;;;;;;10.30;3.28;;;;;;;19.20;71.63;100562.78;5045625;28;20068;-90
2021/08/15 10:47:12;;;;;;;7.63;2.17;;;;;;;19.21;71.42;100555.16;5064279;28;20047;-86
2021/08/15 10:49:49;;;;;;;8.02;1.98;;;;;;;19.19;71.48;100549.16;5065577;28;20053;-87
2021/08/15 10:52:46;;;;;;;6.38;1.38;;;;;;;19.19;70.81;100551.97;5069602;28;20045;-85
2021/08/15 10:55:16;;;;;;;4.18;1.95;;;;;;;19.20;71.19;100543.13;5055879;28;20052;-87
2021/08/15 10:57:50;;;;;;;5.50;2.55;;;;;;;19.10;70.52;100560.03;5064274;28;20499;-86
2021/08/15 11:00:30;;;;;;;7.90;2.03;;;;;;;18.95;71.15;100556.50;5064362;28;20036;-88
2021/08/15 11:03:22;;;;;;;4.60;2.03;;;;;;;18.90;70.93;100558.91;5069968;28;20083;-87
2021/08/15 11:05:50;;;;;;;6.13;2.83;;;;;;;18.97;71.26;100556.06;5048086;28;20055;-87
2021/08/15 11:08:32;;;;;;;6.88;1.67;;;;;;;19.05;70.90;100564.06;5072477;28;20123;-86
2021/08/15 11:11:14;;;;;;;;;;;;;;;19.09;71.16;100566.88;5067512;28;20045;-86
2021/08/15 11:13:41;;;;;;;5.15;2.05;;;;;;;19.20;71.33;100565.59;5055749;28;19956;-86
2021/08/15 11:16:25;;;;;;;5.55;1.90;;;;;;;19.28;70.35;100569.97;5063643;28;20114;-87
2021/08/15 11:19:08;;;;;;;;;;;;;;;19.35;70.39;100569.91;5049001;28;20049;-83
2021/08/15 11:22:13;;;;;;;8.07;1.80;;;;;;;19.46;70.37;100569.13;5078637;28;19931;-84
2021/08/15 11:24:43;;;;;;;5.00;2.10;;;;;;;19.66;70.49;100576.63;5071984;28;20045;-83
2021/08/15 11:27:19;;;;;;;3.55;1.52;;;;;;;19.78;69.90;100569.69;5071975;28;20064;-90
2021/08/15 11:29:48;;;;;;;6.03;2.08;;;;;;;19.88;69.77;100569.63;5055599;28;20052;-88
2021/08/15 11:32:29;;;;;;;3.53;1.70;;;;;;;20.16;68.89;100570.63;5064724;28;20553;-89